Time;durP1;ratioP1;P1;durP2;ratioP2;P2;SDS_P1;SDS_P2;PMS_P1;PMS_P2;Temp;Humidity;BMP_temperature;BMP_pressure;BME280_temperature;BME280_humidity;BME280_pressure;Samples;Min_cycle;Max_cycle;Signal;HPM_P1;HPM_P2
2022/01/28 00:02:31;;;;;;;43.67;23.20;;;;;;;1.17;47.38;95627.97;5010529;28;20747;-60
2022/01/28 00:04:58;;;;;;;48.95;23.83;;;;;;;1.10;48.23;95616.75;5009989;28;20201;-60
2022/01/28 00:07:25;;;;;;;47.65;23.75;;;;;;;1.21;48.46;95623.25;5010771;28;20577;-60
2022/01/28 00:09:52;;;;;;;43.90;22.17;;;;;;;0.96;48.76;95618.38;5008586;28;20614;-61
2022/01/28 00:12:19;;;;;;;47.58;24.75;;;;;;;1.77;47.95;95622.53;5004497;28;20451;-61
2022/01/28 00:15:06;;;;;;;48.97;25.30;;;;;;;1.75;47.17;95614.16;5007978;28;20213;-61
2022/01/28 00:37:00;;;;;;;55.58;27.30;;;;;;;2.21;46.21;95605.00;5025180;28;20300;-61
2022/01/28 00:39:27;;;;;;;52.70;26.40;;;;;;;0.70;48.90;95589.66;5009315;28;20756;-60
2022/01/28 00:41:54;;;;;;;59.58;28.35;;;;;;;1.38;48.75;95604.00;5009893;28;20189;-60
2022/01/28 00:44:21;;;;;;;60.55;28.75;;;;;;;0.62;49.32;95602.63;5010228;28;20202;-60
2022/01/28 00:46:48;;;;;;;55.55;28.40;;;;;;;0.83;49.48;95589.84;5010618;28;20197;-60
2022/01/28 00:49:15;;;;;;;55.08;27.88;;;;;;;1.14;48.72;95584.47;5009827;28;20264;-60
2022/01/28 00:51:42;;;;;;;54.70;28.23;;;;;;;1.71;47.33;95584.50;5010453;28;20210;-60
2022/01/28 00:54:09;;;;;;;59.80;29.38;;;;;;;2.13;46.63;95584.47;5009329;28;20217;-60
2022/01/28 00:56:36;;;;;;;58.10;28.50;;;;;;;1.56;47.78;95581.97;5009483;28;20201;-60
2022/01/28 00:59:03;;;;;;;57.97;27.15;;;;;;;1.43;48.72;95584.41;5009284;28;20205;-60
2022/01/28 01:01:29;;;;;;;55.28;27.58;;;;;;;1.64;48.63;95578.47;5009244;28;20661;-62
2022/01/28 01:03:58;;;;;;;56.05;27.52;;;;;;;2.00;48.09;95568.84;5008761;28;20681;-62
2022/01/28 01:06:26;;;;;;;53.88;27.02;;;;;;;1.28;49.54;95567.34;5009450;28;20224;-62
2022/01/28 01:08:53;;;;;;;55.70;28.63;;;;;;;1.85;48.20;95565.53;5009448;28;20213;-60
2022/01/28 01:11:22;;;;;;;52.22;27.98;;;;;;;0.86;50.19;95561.09;5009650;28;20220;-61
2022/01/28 01:13:49;;;;;;;55.40;26.25;;;;;;;0.90;50.81;95562.34;5009524;28;20197;-61
2022/01/28 01:16:23;;;;;;;48.40;25.40;;;;;;;1.38;49.18;95562.69;5009402;28;20226;-60
2022/01/28 01:19:40;;;;;;;46.67;22.40;;;;;;;1.33;49.21;95559.84;5009363;28;20701;-61
2022/01/28 01:21:40;;;;;;;51.90;22.17;;;;;;;0.90;49.91;95558.94;5012067;28;20205;-61
2022/01/28 01:24:10;;;;;;;51.67;25.45;;;;;;;1.10;49.34;95554.81;5009246;28;20548;-61
2022/01/28 01:26:40;;;;;;;46.78;23.40;;;;;;;1.21;48.99;95551.78;5009603;28;20201;-60
2022/01/28 01:29:10;;;;;;;49.35;22.05;;;;;;;1.15;48.26;95531.84;5008651;28;20202;-60
2022/01/28 01:31:40;;;;;;;44.33;21.73;;;;;;;1.23;48.07;95533.53;5008909;28;20217;-61
2022/01/28 01:34:15;;;;;;;43.92;21.10;;;;;;;1.15;47.66;95520.75;5008507;28;20216;-60
2022/01/28 01:36:43;;;;;;;41.13;20.02;;;;;;;1.36;48.01;95531.09;5009688;28;20208;-60
2022/01/28 01:39:14;;;;;;;39.17;19.65;;;;;;;1.39;47.46;95535.88;5012729;28;20276;-61
2022/01/28 01:41:47;;;;;;;44.17;21.17;;;;;;;1.51;47.64;95517.16;5013336;28;20225;-60
2022/01/28 01:52:46;;;;;;;40.70;20.58;;;;;;;1.73;46.35;95474.03;5012504;28;20206;-60
2022/01/28 01:55:13;;;;;;;39.80;20.35;;;;;;;1.92;46.63;95479.34;5012284;28;20246;-60
2022/01/28 01:57:40;;;;;;;40.35;19.33;;;;;;;1.74;46.62;95504.84;5011824;28;20202;-60
2022/01/28 02:00:08;;;;;;;42.50;20.67;;;;;;;1.08;48.73;95500.00;5012480;28;20186;-60
2022/01/28 02:02:45;;;;;;;38.83;18.13;;;;;;;0.80;49.07;95499.88;5012631;28;20207;-61
2022/01/28 02:05:13;;;;;;;40.67;20.55;;;;;;;1.23;48.42;95513.69;5012620;28;20201;-59
2022/01/28 02:07:41;;;;;;;44.38;22.38;;;;;;;1.60;47.21;95504.91;5013211;28;20190;-59
2022/01/28 02:10:08;;;;;;;41.78;20.70;;;;;;;1.82;46.63;95502.13;5012027;28;20218;-60
2022/01/28 02:12:50;;;;;;;38.70;18.98;;;;;;;0.91;48.74;95496.84;5012174;28;20225;-60
2022/01/28 02:15:18;;;;;;;44.22;21.27;;;;;;;1.43;47.31;95494.03;5012577;28;20202;-60
2022/01/28 02:17:45;;;;;;;41.08;19.67;;;;;;;1.40;46.96;95493.59;5012348;28;20682;-62
2022/01/28 02:20:38;;;;;;;42.75;21.15;;;;;;;1.38;47.46;95487.81;5011923;28;20210;-61
2022/01/28 02:23:05;;;;;;;44.45;22.08;;;;;;;0.97;47.99;95488.38;5011641;28;20206;-60
2022/01/28 02:25:33;;;;;;;41.55;20.80;;;;;;;1.28;47.46;95489.91;5012341;28;20201;-61
2022/01/28 02:28:06;;;;;;;46.95;21.13;;;;;;;1.36;46.73;95488.00;5011947;28;20198;-60
2022/01/28 02:30:34;;;;;;;38.10;20.63;;;;;;;0.94;47.65;95482.78;5011786;28;20255;-60
2022/01/28 02:33:24;;;;;;;42.70;21.65;;;;;;;0.34;48.65;95479.66;5011966;28;20188;-61
2022/01/28 02:35:49;;;;;;;42.47;21.20;;;;;;;0.26;49.18;95466.88;5012139;28;20696;-60
2022/01/28 02:38:23;;;;;;;42.80;20.98;;;;;;;0.57;48.42;95476.00;5011551;28;20313;-60
2022/01/28 02:41:01;;;;;;;42.42;20.45;;;;;;;0.79;47.67;95490.56;5012399;28;20276;-61
2022/01/28 02:43:41;;;;;;;39.75;20.15;;;;;;;0.05;49.48;95475.31;5011131;28;20698;-60
2022/01/28 02:46:14;;;;;;;38.08;19.65;;;;;;;-0.08;49.54;95454.50;5012205;28;20205;-60
2022/01/28 02:48:52;;;;;;;40.08;19.30;;;;;;;0.33;49.01;95478.88;5010439;28;20665;-60
2022/01/28 02:51:21;;;;;;;40.25;19.60;;;;;;;0.75;47.96;95476.44;5011626;28;20229;-61
2022/01/28 02:53:53;;;;;;;40.88;20.30;;;;;;;0.51;47.51;95481.88;5010633;28;20182;-60
2022/01/28 02:56:31;;;;;;;40.47;19.45;;;;;;;0.66;47.97;95479.28;5011189;28;20202;-60
2022/01/28 02:59:05;;;;;;;37.20;18.35;;;;;;;0.85;47.07;95468.41;5011056;28;20228;-61
2022/01/28 03:01:31;;;;;;;37.90;19.00;;;;;;;0.95;47.09;95456.81;5011641;28;20205;-61
2022/01/28 03:04:01;;;;;;;40.97;20.20;;;;;;;0.95;47.14;95467.13;5010952;28;20232;-60
2022/01/28 03:06:28;;;;;;;43.35;20.15;;;;;;;1.11;46.57;95468.69;5011289;28;20221;-59
2022/01/28 03:08:58;;;;;;;41.45;20.75;;;;;;;0.85;47.13;95474.38;5010613;28;20198;-61
2022/01/28 03:16:51;;;;;;;51.10;26.00;;;;;;;0.76;47.16;95457.41;5010600;28;20264;-61
2022/01/28 03:19:22;;;;;;;45.40;20.02;;;;;;;0.88;47.92;95453.34;5010234;28;20320;-60
2022/01/28 03:21:56;;;;;;;44.17;21.05;;;;;;;0.97;47.08;95457.44;5010701;28;20190;-62
2022/01/28 03:24:27;;;;;;;36.05;19.70;;;;;;;1.13;47.25;95435.75;5010214;28;20198;-61
2022/01/28 03:27:04;;;;;;;39.97;18.65;;;;;;;0.69;47.36;95417.81;5010664;28;20685;-59
2022/01/28 03:29:31;;;;;;;40.15;19.02;;;;;;;0.97;46.78;95441.94;5010433;28;20225;-60
2022/01/28 03:31:57;;;;;;;37.03;17.83;;;;;;;0.68;47.95;95447.19;5011150;28;20202;-60
2022/01/28 03:34:24;;;;;;;40.17;20.38;;;;;;;1.04;47.33;95437.66;5009769;28;20198;-60
2022/01/28 03:36:52;;;;;;;40.63;19.60;;;;;;;0.68;47.98;95431.72;5010728;28;20761;-60
2022/01/28 03:39:19;;;;;;;37.58;16.20;;;;;;;0.12;48.50;95408.41;5010274;28;20951;-59
2022/01/28 03:41:46;;;;;;;40.72;18.42;;;;;;;0.23;48.54;95423.41;5010997;28;20201;-60
2022/01/28 03:44:13;;;;;;;43.08;20.52;;;;;;;0.85;47.41;95433.09;5009720;28;20197;-61
2022/01/28 03:46:40;;;;;;;38.53;18.60;;;;;;;0.77;46.99;95428.03;5010660;28;20291;-60
2022/01/28 03:49:09;;;;;;;35.75;18.35;;;;;;;0.90;47.13;95425.59;5010287;28;20256;-60
2022/01/28 03:51:36;;;;;;;36.90;17.75;;;;;;;0.38;48.86;95413.91;5011138;28;20303;-61
2022/01/28 03:54:03;;;;;;;37.60;18.70;;;;;;;0.76;47.72;95410.16;5009527;28;20193;-62
2022/01/28 03:56:30;;;;;;;35.28;18.00;;;;;;;0.92;47.37;95397.03;5011230;28;20206;-60
2022/01/28 03:58:56;;;;;;;39.20;18.10;;;;;;;1.14;46.63;95398.63;5011254;28;20186;-60
2022/01/28 04:01:30;;;;;;;42.55;20.05;;;;;;;1.10;47.01;95399.19;5011805;28;20252;-59
2022/01/28 04:12:14;;;;;;;42.85;18.48;;;;;;;-0.89;51.29;95391.88;5027760;28;20312;-62
2022/01/28 04:14:48;;;;;;;32.10;15.60;;;;;;;-0.53;52.55;95385.13;5027270;28;20635;-61
2022/01/28 04:17:20;;;;;;;33.28;16.75;;;;;;;0.73;49.75;95393.28;5017758;28;20229;-63
2022/01/28 04:19:48;;;;;;;38.88;18.08;;;;;;;0.27;49.28;95397.13;5010010;28;20264;-61
2022/01/28 04:22:15;;;;;;;34.78;17.88;;;;;;;0.86;48.79;95398.56;5010379;28;20652;-60
2022/01/28 04:24:43;;;;;;;37.22;19.48;;;;;;;1.01;47.78;95401.91;5009754;28;20201;-61
2022/01/28 04:27:10;;;;;;;37.45;18.23;;;;;;;1.43;46.80;95405.44;5010200;28;20264;-61
2022/01/28 04:29:37;;;;;;;38.70;18.08;;;;;;;1.29;47.42;95408.88;5009936;28;20232;-61
2022/01/28 04:32:04;;;;;;;41.75;19.30;;;;;;;1.73;46.92;95423.13;5010661;28;20224;-61
2022/01/28 04:34:32;;;;;;;38.15;18.33;;;;;;;1.53;46.72;95416.25;5009700;28;20305;-61
2022/01/28 04:39:45;;;;;;;43.17;19.95;;;;;;;1.40;47.21;95411.78;5009558;28;20596;-60
2022/01/28 04:47:26;;;;;;;37.47;20.35;;;;;;;1.59;45.98;95393.03;5010525;28;20193;-60
2022/01/28 04:50:04;;;;;;;38.90;19.98;;;;;;;1.88;45.40;95399.81;5009888;28;20248;-59
2022/01/28 04:55:15;;;;;;;100.93;45.13;;;;;;;1.69;44.44;95421.13;5009368;28;20256;-61
2022/01/28 05:00:43;;;;;;;115.72;54.97;;;;;;;1.48;44.59;95421.19;5008035;28;20194;-61
2022/01/28 05:03:26;;;;;;;127.60;58.47;;;;;;;1.14;45.05;95424.44;5009168;28;20212;-61
2022/01/28 05:14:52;;;;;;;166.52;79.13;;;;;;;0.73;44.33;95424.22;5013663;28;20596;-60
2022/01/28 05:27:20;;;;;;;143.90;70.43;;;;;;;1.17;43.77;95420.72;4993308;28;20201;-60
2022/01/28 05:29:47;;;;;;;144.02;65.43;;;;;;;1.16;43.91;95425.06;4993089;28;20609;-60
2022/01/28 05:32:14;;;;;;;131.90;63.65;;;;;;;0.98;44.24;95422.09;4993305;28;20273;-58
2022/01/28 05:34:42;;;;;;;127.57;58.35;;;;;;;1.22;43.89;95426.09;4992646;28;20256;-61
2022/01/28 05:37:09;;;;;;;126.95;56.50;;;;;;;0.63;44.52;95434.03;4993387;28;20229;-60
2022/01/28 05:39:36;;;;;;;117.00;54.83;;;;;;;0.80;44.08;95435.41;4992930;28;20707;-60
2022/01/28 05:42:04;;;;;;;114.78;51.67;;;;;;;1.10;43.57;95430.16;4993513;28;20179;-61
2022/01/28 05:44:31;;;;;;;111.30;51.65;;;;;;;1.09;43.79;95431.94;4992749;28;20206;-63
2022/01/28 05:47:02;;;;;;;165.68;61.83;;;;;;;0.64;44.26;95438.19;4992226;28;20261;-60
2022/01/28 05:49:30;;;;;;;122.32;53.03;;;;;;;0.31;45.28;95437.00;4992255;28;20207;-60
2022/01/28 05:51:58;;;;;;;110.40;49.88;;;;;;;-0.31;46.79;95433.19;4991639;28;20226;-60
2022/01/28 05:54:25;;;;;;;121.85;58.08;;;;;;;-0.41;48.21;95438.56;4991456;28;20179;-55
2022/01/28 05:56:52;;;;;;;115.60;53.72;;;;;;;0.01;47.94;95438.00;4993210;28;20627;-56
2022/01/28 05:59:19;;;;;;;126.68;56.83;;;;;;;0.74;45.73;95438.72;4991798;28;20198;-59
2022/01/28 06:01:46;;;;;;;97.43;45.58;;;;;;;0.04;46.28;95445.38;5006871;28;20202;-60
2022/01/28 06:04:16;;;;;;;86.80;40.47;;;;;;;-1.16;49.44;95448.00;4991474;28;20203;-61
2022/01/28 06:06:44;;;;;;;89.30;43.75;;;;;;;-0.84;49.63;95441.03;4992518;28;20239;-60
2022/01/28 06:09:11;;;;;;;103.28;46.33;;;;;;;-1.07;49.92;95439.25;4992239;28;20234;-61
2022/01/28 06:11:38;;;;;;;97.72;45.53;;;;;;;-0.07;48.40;95440.66;4992538;28;20214;-59
2022/01/28 06:14:09;;;;;;;88.85;42.15;;;;;;;0.93;51.12;95440.69;4992750;28;20684;-57
2022/01/28 06:16:35;;;;;;;90.18;44.95;;;;;;;1.03;48.50;95446.38;4992409;28;20253;-57
2022/01/28 06:19:02;;;;;;;96.93;46.45;;;;;;;1.16;47.47;95437.97;4992201;28;20612;-61
2022/01/28 06:21:29;;;;;;;102.60;49.47;;;;;;;0.92;47.08;95449.44;4992338;28;20261;-63
2022/01/28 06:23:56;;;;;;;110.28;49.90;;;;;;;0.85;47.12;95453.72;4992406;28;20268;-58
2022/01/28 06:26:23;;;;;;;99.45;50.95;;;;;;;0.98;46.83;95463.41;4992612;28;20222;-58
2022/01/28 06:28:50;;;;;;;130.25;60.28;;;;;;;0.65;46.99;95416.59;5006548;28;20725;-58
2022/01/28 06:31:17;;;;;;;112.80;55.47;;;;;;;1.20;46.97;95461.63;4991508;28;20640;-58
2022/01/28 06:33:48;;;;;;;112.32;55.28;;;;;;;1.34;46.77;95463.34;4991383;28;20211;-57
2022/01/28 06:36:15;;;;;;;83.32;40.53;;;;;;;1.50;46.46;95465.66;4992208;28;20198;-59
2022/01/28 06:38:42;;;;;;;84.45;40.05;;;;;;;0.47;48.76;95464.38;4991222;28;20324;-60
2022/01/28 06:41:09;;;;;;;78.10;39.00;;;;;;;0.82;48.88;95469.56;4992054;28;20974;-58
2022/01/28 06:43:39;;;;;;;81.00;39.88;;;;;;;1.70;46.74;95458.88;4991089;28;20662;-58
2022/01/28 06:46:06;;;;;;;84.07;41.90;;;;;;;1.76;46.23;95438.28;4991847;28;20194;-60
2022/01/28 06:48:33;;;;;;;101.68;50.65;;;;;;;1.41;46.74;95453.88;4991550;28;20198;-62
2022/01/28 06:51:00;;;;;;;102.65;49.95;;;;;;;1.77;46.33;95454.59;4991829;28;20226;-58
2022/01/28 06:53:27;;;;;;;117.03;59.65;;;;;;;0.62;49.08;95458.22;4991147;28;20202;-59
2022/01/28 06:55:54;;;;;;;101.15;52.33;;;;;;;1.53;48.08;95462.72;4991920;28;20203;-60
2022/01/28 06:58:21;;;;;;;96.82;50.72;;;;;;;2.30;46.05;95461.69;4991650;28;20213;-61
2022/01/28 07:00:48;;;;;;;98.88;46.65;;;;;;;2.47;45.63;95452.63;4991746;28;20191;-60
2022/01/28 07:03:15;;;;;;;80.03;38.25;;;;;;;1.81;47.29;95466.13;4991596;28;20199;-61
2022/01/28 07:05:42;;;;;;;58.15;28.83;;;;;;;2.19;47.08;95459.63;4992008;28;20628;-60
2022/01/28 07:08:09;;;;;;;86.65;42.30;;;;;;;2.82;45.53;95467.13;4991330;28;20206;-60
2022/01/28 07:10:36;;;;;;;81.10;42.50;;;;;;;3.15;45.31;95466.41;4991920;28;20210;-64
2022/01/28 07:13:03;;;;;;;83.72;40.72;;;;;;;3.34;44.53;95476.03;4991595;28;20758;-60
2022/01/28 07:15:31;;;;;;;78.03;38.03;;;;;;;3.40;44.33;95464.84;4991590;28;20201;-58
2022/01/28 07:18:02;;;;;;;74.53;36.50;;;;;;;3.60;44.13;95483.81;4990813;28;20222;-60
2022/01/28 07:20:33;;;;;;;72.90;37.60;;;;;;;3.82;43.87;95480.03;4991770;28;20641;-61
2022/01/28 07:23:01;;;;;;;175.98;82.15;;;;;;;3.75;44.01;95484.44;4991363;28;20198;-61
2022/01/28 07:25:28;;;;;;;218.98;108.18;;;;;;;3.92;43.79;95465.69;4990980;28;20238;-60
2022/01/28 07:27:55;;;;;;;283.60;137.63;;;;;;;4.04;43.60;95478.84;4991047;28;20206;-60
2022/01/28 07:30:22;;;;;;;272.98;132.50;;;;;;;3.96;44.38;95471.25;4991674;28;20584;-60
2022/01/28 07:32:50;;;;;;;250.35;120.63;;;;;;;4.21;43.34;95469.66;4991364;28;20253;-60
2022/01/28 07:35:17;;;;;;;174.98;87.47;;;;;;;4.41;43.06;95480.81;4990285;28;20206;-60
2022/01/28 07:37:45;;;;;;;263.13;134.88;;;;;;;4.27;42.52;95481.03;4990387;28;20199;-61
2022/01/28 07:40:12;;;;;;;232.75;115.63;;;;;;;4.04;43.64;95502.19;4991305;28;20214;-61
2022/01/28 07:42:40;;;;;;;195.38;99.95;;;;;;;4.13;42.92;95498.41;4991487;28;20557;-58
2022/01/28 07:45:09;;;;;;;162.30;84.13;;;;;;;4.13;42.24;95493.19;4991245;28;20202;-60
2022/01/28 07:47:38;;;;;;;144.45;73.30;;;;;;;3.81;41.87;95505.16;4991697;28;20698;-60
2022/01/28 07:50:07;;;;;;;132.70;69.93;;;;;;;3.89;42.49;95501.59;4991013;28;20213;-61
2022/01/28 07:52:35;;;;;;;145.52;74.00;;;;;;;3.49;42.54;95505.94;4991121;28;20229;-59
2022/01/28 07:55:04;;;;;;;132.27;70.55;;;;;;;3.98;43.35;95521.13;4990680;28;20277;-58
2022/01/28 07:57:31;;;;;;;130.20;68.30;;;;;;;3.92;42.42;95527.13;4990959;28;20191;-61
2022/01/28 07:59:58;;;;;;;137.30;67.40;;;;;;;4.14;42.47;95525.94;4990616;28;20194;-60
2022/01/28 08:02:27;;;;;;;144.05;68.15;;;;;;;4.38;41.66;95512.31;4990796;28;20686;-59
2022/01/28 08:04:54;;;;;;;130.23;66.05;;;;;;;4.78;40.76;95513.84;4990831;28;20701;-57
2022/01/28 08:07:22;;;;;;;140.93;69.40;;;;;;;4.80;40.89;95506.66;4991458;28;20562;-58
2022/01/28 08:09:49;;;;;;;129.93;65.60;;;;;;;4.75;41.10;95503.88;4991068;28;20237;-57
2022/01/28 08:12:16;;;;;;;125.85;61.22;;;;;;;4.65;40.54;95500.88;4990959;28;20226;-59
2022/01/28 08:14:43;;;;;;;114.28;58.92;;;;;;;4.79;40.89;95504.25;4990294;28;20190;-56
2022/01/28 08:17:11;;;;;;;125.20;63.22;;;;;;;4.81;40.66;95497.88;4990922;28;20590;-57
2022/01/28 08:19:38;;;;;;;117.03;58.88;;;;;;;5.26;40.43;95479.69;4991128;28;20565;-57
2022/01/28 08:22:06;;;;;;;107.72;56.97;;;;;;;5.39;40.27;95475.22;4991338;28;20195;-59
2022/01/28 08:24:33;;;;;;;114.55;57.97;;;;;;;5.72;40.22;95465.41;4990377;28;20292;-57
2022/01/28 08:27:00;;;;;;;106.88;57.28;;;;;;;5.74;39.68;95473.78;4990226;28;20655;-58
2022/01/28 08:29:27;;;;;;;99.60;51.42;;;;;;;5.73;39.55;95479.22;4990207;28;20178;-58
2022/01/28 08:31:54;;;;;;;99.38;48.40;;;;;;;6.01;39.46;95458.78;4990080;28;20240;-56
2022/01/28 08:34:21;;;;;;;96.28;49.50;;;;;;;6.00;39.55;95468.41;4990031;28;20205;-57
2022/01/28 08:36:48;;;;;;;96.65;48.80;;;;;;;6.27;39.16;95470.78;4990508;28;20584;-58
2022/01/28 08:39:16;;;;;;;98.53;49.58;;;;;;;6.65;38.22;95459.19;4991450;28;20244;-57
2022/01/28 08:41:43;;;;;;;89.50;45.08;;;;;;;7.14;37.83;95456.38;4990998;28;20194;-57
2022/01/28 08:44:14;;;;;;;79.75;41.08;;;;;;;7.49;37.35;95460.94;4989804;28;20708;-58
2022/01/28 08:46:41;;;;;;;78.43;40.38;;;;;;;7.27;38.31;95459.81;4989388;28;20241;-58
2022/01/28 08:49:08;;;;;;;75.90;38.20;;;;;;;7.33;37.41;95459.75;4989764;28;20198;-56
2022/01/28 08:51:37;;;;;;;70.80;37.55;;;;;;;6.89;38.85;95452.28;4990295;28;20591;-58
2022/01/28 08:54:04;;;;;;;69.05;36.08;;;;;;;6.91;38.23;95465.91;4989998;28;20202;-55
2022/01/28 08:56:31;;;;;;;68.47;34.60;;;;;;;7.30;37.66;95475.03;4990374;28;20202;-56
2022/01/28 08:58:58;;;;;;;61.08;33.75;;;;;;;7.36;37.52;95468.94;4989416;28;20210;-58
2022/01/28 09:01:24;;;;;;;66.47;33.92;;;;;;;7.46;36.78;95469.22;4989847;28;20195;-55
2022/01/28 09:03:52;;;;;;;66.07;33.58;;;;;;;7.82;37.43;95469.88;4989674;28;20627;-56
2022/01/28 09:06:19;;;;;;;62.47;32.95;;;;;;;7.96;36.82;95466.03;4989881;28;20198;-56
2022/01/28 09:08:47;;;;;;;65.68;31.63;;;;;;;8.05;37.03;95461.28;4989639;28;20217;-58
2022/01/28 09:13:52;;;;;;;56.60;30.58;;;;;;;8.96;35.71;95451.81;4989926;28;20213;-57
2022/01/28 09:16:21;;;;;;;60.50;31.83;;;;;;;9.17;35.26;95474.72;4989443;28;20333;-57
2022/01/28 09:18:49;;;;;;;58.15;32.00;;;;;;;9.25;34.42;95462.31;4989784;28;20206;-56
2022/01/28 09:21:16;;;;;;;61.70;30.60;;;;;;;9.44;33.98;95448.00;4990001;28;20201;-57
2022/01/28 09:23:43;;;;;;;61.67;30.33;;;;;;;10.01;34.31;95459.97;4989089;28;20261;-56
2022/01/28 09:26:09;;;;;;;60.85;30.88;;;;;;;9.72;33.40;95464.50;4989756;28;20203;-58
2022/01/28 09:28:36;;;;;;;55.72;31.25;;;;;;;10.04;33.30;95462.13;4989205;28;20660;-58
2022/01/28 09:31:04;;;;;;;66.43;32.15;;;;;;;10.26;32.19;95463.03;4989753;28;20203;-58
2022/01/28 09:33:31;;;;;;;59.88;32.28;;;;;;;11.44;31.97;95454.59;4989498;28;20203;-59
2022/01/28 09:35:58;;;;;;;60.13;33.05;;;;;;;11.13;31.66;95456.88;4989333;28;20261;-56
2022/01/28 09:38:24;;;;;;;63.53;32.30;;;;;;;11.00;31.08;95454.59;4989059;28;20632;-59
2022/01/28 09:40:51;;;;;;;64.32;34.42;;;;;;;10.26;32.28;95465.63;4989690;28;20839;-55
2022/01/28 09:43:20;;;;;;;62.05;34.47;;;;;;;8.48;35.36;95455.75;4989385;28;20306;-55
2022/01/28 09:45:47;;;;;;;68.10;35.63;;;;;;;8.30;35.97;95461.91;4989313;28;20206;-56
2022/01/28 09:48:17;;;;;;;70.30;35.55;;;;;;;8.87;35.85;95458.41;4989072;28;20605;-56
2022/01/28 09:50:46;;;;;;;68.55;36.70;;;;;;;9.75;33.94;95452.72;4989296;28;20269;-57
2022/01/28 09:53:14;;;;;;;69.10;36.42;;;;;;;9.82;34.35;95456.00;4988891;28;20218;-57
2022/01/28 09:55:42;;;;;;;71.30;38.90;;;;;;;9.95;33.95;95460.91;4989276;28;20237;-56
2022/01/28 09:58:09;;;;;;;75.03;38.63;;;;;;;9.85;34.27;95466.00;4990348;28;20202;-56
2022/01/28 10:00:36;;;;;;;72.25;38.65;;;;;;;9.55;34.63;95468.09;4992890;28;20748;-56
2022/01/28 10:03:06;;;;;;;75.00;38.42;;;;;;;8.11;36.10;95461.19;4992185;28;20213;-57
2022/01/28 10:05:35;;;;;;;70.22;37.33;;;;;;;8.48;36.08;95458.38;4992789;28;20246;-57
2022/01/28 10:08:23;;;;;;;73.85;38.30;;;;;;;8.28;36.55;95469.16;4991954;28;20958;-56
2022/01/28 10:11:03;;;;;;;74.13;38.70;;;;;;;8.57;36.67;95472.66;4993225;28;20640;-61
2022/01/28 10:16:13;;;;;;;66.70;40.10;;;;;;;8.97;35.97;95469.09;4992541;28;20571;-57
2022/01/28 10:18:48;;;;;;;77.20;42.92;;;;;;;9.00;36.14;95479.06;4991948;28;20195;-55
2022/01/28 10:21:29;;;;;;;82.70;43.17;;;;;;;8.83;36.01;95461.75;4992483;28;20256;-56
2022/01/28 10:23:59;;;;;;;78.05;42.05;;;;;;;8.90;39.14;95473.66;4992034;28;20202;-57
2022/01/28 10:26:37;;;;;;;85.78;45.08;;;;;;;9.03;37.37;95473.38;4992556;28;20214;-56
2022/01/28 10:29:11;;;;;;;94.78;49.55;;;;;;;8.81;36.75;95480.25;4992020;28;20219;-57
2022/01/28 10:31:56;;;;;;;95.18;49.92;;;;;;;8.51;36.70;95474.38;4992215;28;20238;-55
2022/01/28 10:34:26;;;;;;;113.60;53.28;;;;;;;8.64;37.30;95476.75;4991804;28;20179;-56
2022/01/28 10:37:16;;;;;;;110.13;58.35;;;;;;;8.26;37.62;95481.66;4992589;28;20190;-54
2022/01/28 10:39:47;;;;;;;100.13;55.38;;;;;;;8.42;37.53;95475.75;4992079;28;20194;-57
2022/01/28 10:42:33;;;;;;;105.25;56.67;;;;;;;8.34;37.83;95477.91;4992508;28;20570;-56
2022/01/28 10:45:10;;;;;;;101.22;54.08;;;;;;;8.28;37.17;95478.81;4992172;28;20321;-56
2022/01/28 10:47:37;;;;;;;108.53;56.10;;;;;;;8.39;37.50;95471.00;4992222;28;20191;-55
2022/01/28 10:50:33;;;;;;;98.10;54.33;;;;;;;8.08;38.23;95487.72;4991981;28;20671;-57
2022/01/28 10:53:06;;;;;;;110.90;57.08;;;;;;;8.28;37.41;95463.94;4991944;28;20310;-57
2022/01/28 10:55:39;;;;;;;103.72;55.78;;;;;;;8.25;37.53;95467.00;4991963;28;20221;-58
2022/01/28 10:58:14;;;;;;;103.35;54.10;;;;;;;8.47;37.82;95472.44;4991515;28;20221;-58
2022/01/28 11:00:46;;;;;;;103.28;51.67;;;;;;;8.10;37.75;95461.41;4991892;28;20226;-56
2022/01/28 11:03:16;;;;;;;102.85;51.42;;;;;;;8.47;37.57;95452.34;4991113;28;20708;-57
2022/01/28 11:05:44;;;;;;;100.07;51.97;;;;;;;8.58;38.08;95458.56;4991200;28;20590;-57
2022/01/28 11:08:13;;;;;;;96.63;51.05;;;;;;;8.64;38.01;95455.06;4991348;28;20203;-54
2022/01/28 11:10:41;;;;;;;99.93;49.08;;;;;;;8.82;37.79;95466.16;4990739;28;20729;-56
2022/01/28 11:13:09;;;;;;;93.70;50.97;;;;;;;8.78;37.81;95465.03;4990943;28;20219;-59
2022/01/28 11:15:37;;;;;;;95.75;50.63;;;;;;;8.90;37.31;95457.97;4991388;28;20237;-56
2022/01/28 11:18:07;;;;;;;97.50;47.85;;;;;;;8.94;37.02;95459.09;4991140;28;20227;-57
2022/01/28 11:20:39;;;;;;;97.88;49.13;;;;;;;8.56;37.75;95445.75;4991782;28;20688;-56
2022/01/28 11:23:24;;;;;;;99.80;53.55;;;;;;;8.47;37.66;95447.13;4990971;28;20599;-57
2022/01/28 11:25:57;;;;;;;98.70;51.58;;;;;;;8.39;37.31;95444.88;4991548;28;20241;-57
2022/01/28 11:28:48;;;;;;;96.68;48.67;;;;;;;8.53;37.03;95443.59;4990888;28;20187;-58
2022/01/28 11:31:15;;;;;;;104.60;51.15;;;;;;;8.79;38.12;95456.19;4991587;28;20198;-57
2022/01/28 11:33:48;;;;;;;99.22;50.70;;;;;;;9.15;37.67;95450.63;4990998;28;20222;-59
2022/01/28 11:36:34;;;;;;;97.47;49.75;;;;;;;8.82;37.23;95437.41;4991026;28;20194;-57
2022/01/28 11:39:18;;;;;;;73.57;36.15;;;;;;;8.80;36.76;95442.09;4990620;28;20210;-57
2022/01/28 11:42:00;;;;;;;62.05;32.95;;;;;;;9.15;36.48;95439.38;4991592;28;20206;-56
2022/01/28 11:44:55;;;;;;;60.08;31.77;;;;;;;9.34;36.28;95432.13;4990513;28;20206;-54
2022/01/28 11:47:52;;;;;;;56.08;28.60;;;;;;;8.60;38.17;95430.41;4990960;28;20198;-55
2022/01/28 11:50:22;;;;;;;53.72;25.02;;;;;;;8.87;37.28;95406.16;4990952;28;20588;-58
2022/01/28 11:52:52;;;;;;;37.17;17.42;;;;;;;8.50;38.47;95431.00;4991116;28;20309;-56
2022/01/28 11:55:21;;;;;;;36.55;15.68;;;;;;;8.54;39.45;95420.91;4990664;28;20206;-54
2022/01/28 11:58:07;;;;;;;156.70;80.05;;;;;;;8.89;39.42;95430.25;4991047;28;20209;-55
2022/01/28 12:00:44;;;;;;;65.45;29.10;;;;;;;9.51;38.56;95430.34;4991331;28;20210;-56
2022/01/28 12:03:25;;;;;;;30.27;13.43;;;;;;;9.40;39.45;95426.75;4990381;28;20200;-57
2022/01/28 12:05:56;;;;;;;17.23;9.52;;;;;;;9.45;38.91;95418.22;4990334;28;20206;-57
2022/01/28 12:08:28;;;;;;;15.73;9.73;;;;;;;9.49;38.80;95419.34;4990095;28;20210;-57
2022/01/28 12:10:56;;;;;;;18.10;8.55;;;;;;;9.44;38.93;95412.19;4990806;28;20187;-55
2022/01/28 12:13:49;;;;;;;16.98;8.77;;;;;;;9.62;39.20;95405.94;4990246;28;20702;-56
2022/01/28 12:16:27;;;;;;;14.02;8.50;;;;;;;9.99;39.03;95401.84;4989911;28;20234;-54
2022/01/28 12:18:56;;;;;;;16.33;8.60;;;;;;;9.96;38.52;95378.75;4990193;28;20233;-56
2022/01/28 12:21:28;;;;;;;19.73;10.40;;;;;;;9.92;40.23;95409.06;4990550;28;20202;-58
2022/01/28 12:24:20;;;;;;;21.00;9.18;;;;;;;10.35;38.77;95398.72;4989727;28;20210;-56
2022/01/28 12:27:05;;;;;;;16.52;9.55;;;;;;;10.26;38.74;95394.13;5005297;28;20230;-54
2022/01/28 12:29:43;;;;;;;15.05;9.15;;;;;;;10.53;37.75;95393.19;4989920;28;20588;-54
2022/01/28 12:32:11;;;;;;;17.90;9.27;;;;;;;10.62;37.71;95389.13;4990890;28;20328;-57
2022/01/28 12:34:46;;;;;;;16.92;8.80;;;;;;;10.09;38.58;95396.78;4990339;28;20670;-60
2022/01/28 12:37:14;;;;;;;17.63;10.23;;;;;;;10.32;38.59;95391.34;4990565;28;20206;-57
2022/01/28 12:39:51;;;;;;;21.00;11.95;;;;;;;10.52;38.61;95383.75;4990124;28;20186;-59
2022/01/28 12:42:26;;;;;;;20.27;11.73;;;;;;;10.79;38.28;95391.69;4990588;28;20290;-56
2022/01/28 12:44:55;;;;;;;18.35;10.38;;;;;;;10.75;38.17;95396.63;4989213;28;20210;-58
2022/01/28 12:47:23;;;;;;;17.85;10.07;;;;;;;10.67;38.57;95397.06;4990281;28;20195;-56
2022/01/28 12:49:55;;;;;;;31.42;11.88;;;;;;;10.74;38.67;95387.19;4989919;28;20228;-57
2022/01/28 12:52:22;;;;;;;21.83;10.55;;;;;;;10.61;38.57;95387.53;4990164;28;20225;-57
2022/01/28 12:54:50;;;;;;;18.85;9.73;;;;;;;10.74;38.40;95389.00;4989902;28;20264;-55
2022/01/28 12:57:19;;;;;;;17.48;10.32;;;;;;;10.86;38.53;95390.47;4990802;28;20629;-52